sensor_id;sensor_type;location;lat;lon;timestamp;pressure;altitude;pressure_sealevel;temperature;humidity
77106;BME280;66057;54.718;18.426;2023-05-07T00:01:45;102381.78;;;7.56;77.75
77106;BME280;66057;54.718;18.426;2023-05-07T00:04:11;102389.59;;;7.57;76.91
77106;BME280;66057;54.718;18.426;2023-05-07T00:06:37;102402.13;;;7.54;76.76
77106;BME280;66057;54.718;18.426;2023-05-07T00:09:02;102388.06;;;7.49;78.41
77106;BME280;66057;54.718;18.426;2023-05-07T00:11:29;102391.16;;;7.45;78.04
77106;BME280;66057;54.718;18.426;2023-05-07T00:13:55;102391.84;;;7.42;78.28
77106;BME280;66057;54.718;18.426;2023-05-07T00:16:21;102378.31;;;7.33;77.98
77106;BME280;66057;54.718;18.426;2023-05-07T00:18:46;102389.41;;;7.34;77.47
77106;BME280;66057;54.718;18.426;2023-05-07T00:21:12;102382.53;;;7.33;77.53
77106;BME280;66057;54.718;18.426;2023-05-07T00:23:38;102388.66;;;7.35;78.29
77106;BME280;66057;54.718;18.426;2023-05-07T00:26:04;102390.75;;;7.29;79.16
77106;BME280;66057;54.718;18.426;2023-05-07T00:28:29;102383.34;;;7.22;79.06
77106;BME280;66057;54.718;18.426;2023-05-07T00:30:55;102397.00;;;7.22;78.88
77106;BME280;66057;54.718;18.426;2023-05-07T00:33:21;102396.78;;;7.19;79.00
77106;BME280;66057;54.718;18.426;2023-05-07T00:35:47;102386.06;;;7.13;79.51
77106;BME280;66057;54.718;18.426;2023-05-07T00:38:13;102393.72;;;7.13;79.00
77106;BME280;66057;54.718;18.426;2023-05-07T00:40:39;102409.16;;;7.15;79.24
77106;BME280;66057;54.718;18.426;2023-05-07T00:43:05;102397.44;;;7.07;79.88
77106;BME280;66057;54.718;18.426;2023-05-07T00:45:32;102400.50;;;7.13;78.62
77106;BME280;66057;54.718;18.426;2023-05-07T00:48:00;102381.09;;;7.05;80.04
77106;BME280;66057;54.718;18.426;2023-05-07T00:50:27;102397.72;;;7.10;78.98
77106;BME280;66057;54.718;18.426;2023-05-07T00:52:53;102406.75;;;7.06;79.07
77106;BME280;66057;54.718;18.426;2023-05-07T00:55:19;102413.03;;;7.10;78.90
77106;BME280;66057;54.718;18.426;2023-05-07T00:57:45;102405.09;;;7.07;80.13
77106;BME280;66057;54.718;18.426;2023-05-07T01:00:11;102417.88;;;7.07;79.09
77106;BME280;66057;54.718;18.426;2023-05-07T01:02:41;102418.94;;;7.09;80.51
77106;BME280;66057;54.718;18.426;2023-05-07T01:05:09;102419.44;;;7.05;78.69
77106;BME280;66057;54.718;18.426;2023-05-07T01:07:37;102425.06;;;7.00;80.14
77106;BME280;66057;54.718;18.426;2023-05-07T01:10:05;102416.25;;;6.97;79.70
77106;BME280;66057;54.718;18.426;2023-05-07T01:12:31;102423.91;;;6.97;79.84
77106;BME280;66057;54.718;18.426;2023-05-07T01:14:58;102420.22;;;6.93;79.88
77106;BME280;66057;54.718;18.426;2023-05-07T01:17:24;102420.09;;;6.82;78.80
77106;BME280;66057;54.718;18.426;2023-05-07T01:19:50;102431.97;;;6.81;79.31
77106;BME280;66057;54.718;18.426;2023-05-07T01:22:16;102428.06;;;6.75;79.89
77106;BME280;66057;54.718;18.426;2023-05-07T01:24:46;102431.13;;;6.71;79.45
77106;BME280;66057;54.718;18.426;2023-05-07T01:27:12;102432.66;;;6.69;79.33
77106;BME280;66057;54.718;18.426;2023-05-07T01:29:38;102439.41;;;6.68;79.51
77106;BME280;66057;54.718;18.426;2023-05-07T01:32:05;102446.56;;;6.62;79.61
77106;BME280;66057;54.718;18.426;2023-05-07T01:34:32;102436.09;;;6.59;79.23
77106;BME280;66057;54.718;18.426;2023-05-07T01:36:59;102440.69;;;6.43;79.91
77106;BME280;66057;54.718;18.426;2023-05-07T01:39:27;102446.06;;;6.36;80.07
77106;BME280;66057;54.718;18.426;2023-05-07T01:41:58;102442.06;;;6.19;80.19
77106;BME280;66057;54.718;18.426;2023-05-07T01:44:25;102458.38;;;6.11;80.63
77106;BME280;66057;54.718;18.426;2023-05-07T01:46:51;102467.31;;;6.06;80.63
77106;BME280;66057;54.718;18.426;2023-05-07T01:49:17;102458.13;;;6.08;80.32
77106;BME280;66057;54.718;18.426;2023-05-07T01:51:43;102459.63;;;5.96;80.66
77106;BME280;66057;54.718;18.426;2023-05-07T01:54:10;102455.22;;;5.85;81.12
77106;BME280;66057;54.718;18.426;2023-05-07T01:56:35;102451.00;;;5.75;81.24
77106;BME280;66057;54.718;18.426;2023-05-07T01:59:01;102461.66;;;5.90;81.50
77106;BME280;66057;54.718;18.426;2023-05-07T02:01:27;102463.94;;;5.87;81.23
77106;BME280;66057;54.718;18.426;2023-05-07T02:03:53;102446.75;;;5.76;81.27
77106;BME280;66057;54.718;18.426;2023-05-07T02:06:19;102455.69;;;5.70;81.85
77106;BME280;66057;54.718;18.426;2023-05-07T02:08:45;102465.75;;;5.69;81.62
77106;BME280;66057;54.718;18.426;2023-05-07T02:11:11;102452.47;;;5.63;82.31
77106;BME280;66057;54.718;18.426;2023-05-07T02:13:37;102456.19;;;5.77;81.76
77106;BME280;66057;54.718;18.426;2023-05-07T02:16:03;102459.28;;;5.83;82.01
77106;BME280;66057;54.718;18.426;2023-05-07T02:18:29;102451.56;;;5.91;81.85
77106;BME280;66057;54.718;18.426;2023-05-07T02:20:55;102470.88;;;5.98;80.86
77106;BME280;66057;54.718;18.426;2023-05-07T02:23:21;102476.97;;;6.00;80.55
77106;BME280;66057;54.718;18.426;2023-05-07T02:25:46;102473.97;;;6.04;80.26
77106;BME280;66057;54.718;18.426;2023-05-07T02:28:12;102473.56;;;5.99;80.25
77106;BME280;66057;54.718;18.426;2023-05-07T02:30:38;102472.91;;;6.02;79.89
77106;BME280;66057;54.718;18.426;2023-05-07T02:33:04;102462.47;;;5.99;79.81
77106;BME280;66057;54.718;18.426;2023-05-07T02:35:30;102473.09;;;6.13;79.44
77106;BME280;66057;54.718;18.426;2023-05-07T02:37:56;102463.38;;;6.20;79.44
77106;BME280;66057;54.718;18.426;2023-05-07T02:40:22;102458.66;;;6.24;79.43
77106;BME280;66057;54.718;18.426;2023-05-07T02:42:47;102457.16;;;6.26;80.11
77106;BME280;66057;54.718;18.426;2023-05-07T02:45:13;102454.19;;;6.22;81.11
77106;BME280;66057;54.718;18.426;2023-05-07T02:47:40;102471.19;;;6.21;81.05
77106;BME280;66057;54.718;18.426;2023-05-07T02:50:06;102473.31;;;6.06;81.37
77106;BME280;66057;54.718;18.426;2023-05-07T02:52:32;102467.97;;;6.03;80.93
77106;BME280;66057;54.718;18.426;2023-05-07T02:54:57;102463.50;;;5.82;80.97
77106;BME280;66057;54.718;18.426;2023-05-07T02:57:23;102484.50;;;5.69;81.18
77106;BME280;66057;54.718;18.426;2023-05-07T02:59:48;102486.47;;;5.53;81.86
77106;BME280;66057;54.718;18.426;2023-05-07T03:02:14;102479.81;;;5.45;82.28
77106;BME280;66057;54.718;18.426;2023-05-07T03:04:40;102479.50;;;5.42;82.06
77106;BME280;66057;54.718;18.426;2023-05-07T03:07:06;102476.28;;;5.35;82.01
77106;BME280;66057;54.718;18.426;2023-05-07T03:09:32;102485.78;;;5.46;82.52
77106;BME280;66057;54.718;18.426;2023-05-07T03:11:58;102479.91;;;5.47;82.30
77106;BME280;66057;54.718;18.426;2023-05-07T03:14:23;102492.47;;;5.54;82.21
77106;BME280;66057;54.718;18.426;2023-05-07T03:16:49;102491.16;;;5.49;82.57
77106;BME280;66057;54.718;18.426;2023-05-07T03:19:15;102494.13;;;5.53;82.08
77106;BME280;66057;54.718;18.426;2023-05-07T03:21:41;102497.41;;;5.52;82.16
77106;BME280;66057;54.718;18.426;2023-05-07T03:24:07;102492.25;;;5.61;82.07
77106;BME280;66057;54.718;18.426;2023-05-07T03:26:32;102496.03;;;5.75;82.12
77106;BME280;66057;54.718;18.426;2023-05-07T03:28:58;102494.97;;;5.72;81.53
77106;BME280;66057;54.718;18.426;2023-05-07T03:31:24;102504.06;;;5.79;81.08
77106;BME280;66057;54.718;18.426;2023-05-07T03:33:54;102506.06;;;5.92;81.02
77106;BME280;66057;54.718;18.426;2023-05-07T03:36:20;102504.91;;;5.88;80.54
77106;BME280;66057;54.718;18.426;2023-05-07T03:38:47;102502.75;;;5.93;80.59
77106;BME280;66057;54.718;18.426;2023-05-07T03:41:13;102513.56;;;5.90;81.01
77106;BME280;66057;54.718;18.426;2023-05-07T03:43:39;102503.38;;;5.71;81.36
77106;BME280;66057;54.718;18.426;2023-05-07T03:46:05;102505.59;;;5.77;81.30
77106;BME280;66057;54.718;18.426;2023-05-07T03:48:31;102510.97;;;5.80;81.33
77106;BME280;66057;54.718;18.426;2023-05-07T03:50:57;102521.38;;;5.92;81.57
77106;BME280;66057;54.718;18.426;2023-05-07T03:53:23;102506.09;;;6.02;81.58
77106;BME280;66057;54.718;18.426;2023-05-07T03:55:49;102505.69;;;5.97;81.23
77106;BME280;66057;54.718;18.426;2023-05-07T03:58:15;102516.97;;;5.99;81.60
77106;BME280;66057;54.718;18.426;2023-05-07T04:00:41;102509.66;;;5.94;81.71
77106;BME280;66057;54.718;18.426;2023-05-07T04:03:07;102519.97;;;5.95;81.72
77106;BME280;66057;54.718;18.426;2023-05-07T04:05:33;102514.13;;;5.96;81.75
77106;BME280;66057;54.718;18.426;2023-05-07T04:08:00;102523.97;;;6.02;81.50
77106;BME280;66057;54.718;18.426;2023-05-07T04:10:26;102523.06;;;6.01;81.36
77106;BME280;66057;54.718;18.426;2023-05-07T04:12:53;102517.72;;;5.98;81.86
77106;BME280;66057;54.718;18.426;2023-05-07T04:15:19;102528.97;;;6.10;81.55
77106;BME280;66057;54.718;18.426;2023-05-07T04:17:45;102520.31;;;6.08;81.03
77106;BME280;66057;54.718;18.426;2023-05-07T04:20:16;102526.59;;;6.22;81.12
77106;BME280;66057;54.718;18.426;2023-05-07T04:22:42;102531.34;;;6.28;81.11
77106;BME280;66057;54.718;18.426;2023-05-07T04:25:08;102525.44;;;6.29;80.98
77106;BME280;66057;54.718;18.426;2023-05-07T04:27:35;102534.44;;;6.44;81.40
77106;BME280;66057;54.718;18.426;2023-05-07T04:30:01;102534.22;;;6.61;80.90
77106;BME280;66057;54.718;18.426;2023-05-07T04:32:28;102530.66;;;6.69;80.67
77106;BME280;66057;54.718;18.426;2023-05-07T04:34:58;102540.88;;;6.89;80.87
77106;BME280;66057;54.718;18.426;2023-05-07T04:37:25;102529.13;;;7.01;80.64
77106;BME280;66057;54.718;18.426;2023-05-07T04:39:51;102532.19;;;7.08;79.57
77106;BME280;66057;54.718;18.426;2023-05-07T04:42:17;102532.94;;;7.17;79.39
77106;BME280;66057;54.718;18.426;2023-05-07T04:44:44;102540.31;;;7.34;79.12
77106;BME280;66057;54.718;18.426;2023-05-07T04:47:10;102555.81;;;7.35;78.65
77106;BME280;66057;54.718;18.426;2023-05-07T04:49:36;102559.50;;;7.49;78.68
77106;BME280;66057;54.718;18.426;2023-05-07T04:52:02;102557.19;;;7.62;78.25
77106;BME280;66057;54.718;18.426;2023-05-07T04:54:29;102546.31;;;7.55;78.21
77106;BME280;66057;54.718;18.426;2023-05-07T04:56:55;102549.22;;;7.69;77.95
77106;BME280;66057;54.718;18.426;2023-05-07T04:59:21;102556.13;;;7.80;77.75
77106;BME280;66057;54.718;18.426;2023-05-07T05:01:46;102557.00;;;7.81;77.78
77106;BME280;66057;54.718;18.426;2023-05-07T05:04:12;102548.03;;;7.86;77.21
77106;BME280;66057;54.718;18.426;2023-05-07T05:06:38;102559.09;;;7.97;77.55
77106;BME280;66057;54.718;18.426;2023-05-07T05:09:04;102556.41;;;8.05;77.62
77106;BME280;66057;54.718;18.426;2023-05-07T05:11:30;102547.47;;;8.00;76.82
77106;BME280;66057;54.718;18.426;2023-05-07T05:13:56;102555.34;;;8.13;77.21
77106;BME280;66057;54.718;18.426;2023-05-07T05:16:22;102565.63;;;8.25;76.35
77106;BME280;66057;54.718;18.426;2023-05-07T05:18:48;102564.50;;;8.21;76.61
77106;BME280;66057;54.718;18.426;2023-05-07T05:21:13;102563.88;;;8.24;76.80
77106;BME280;66057;54.718;18.426;2023-05-07T05:23:39;102568.88;;;8.32;77.11
77106;BME280;66057;54.718;18.426;2023-05-07T05:26:05;102567.56;;;8.38;76.94
77106;BME280;66057;54.718;18.426;2023-05-07T05:28:31;102573.16;;;8.44;77.85
77106;BME280;66057;54.718;18.426;2023-05-07T05:30:57;102577.97;;;8.51;77.16
77106;BME280;66057;54.718;18.426;2023-05-07T05:33:23;102576.47;;;8.64;75.96
77106;BME280;66057;54.718;18.426;2023-05-07T05:35:49;102578.41;;;8.67;76.75
77106;BME280;66057;54.718;18.426;2023-05-07T05:38:16;102575.16;;;8.69;77.15
77106;BME280;66057;54.718;18.426;2023-05-07T05:40:41;102575.94;;;8.68;76.50
77106;BME280;66057;54.718;18.426;2023-05-07T05:43:07;102576.69;;;8.78;76.46
77106;BME280;66057;54.718;18.426;2023-05-07T05:45:33;102581.63;;;8.86;76.82
77106;BME280;66057;54.718;18.426;2023-05-07T05:47:58;102579.16;;;8.88;76.07
77106;BME280;66057;54.718;18.426;2023-05-07T05:50:24;102587.13;;;9.02;75.42
77106;BME280;66057;54.718;18.426;2023-05-07T05:52:50;102583.13;;;9.06;75.01
77106;BME280;66057;54.718;18.426;2023-05-07T05:55:16;102586.47;;;9.05;75.89
77106;BME280;66057;54.718;18.426;2023-05-07T05:57:42;102592.50;;;9.05;75.50
77106;BME280;66057;54.718;18.426;2023-05-07T06:00:08;102570.94;;;8.92;74.83
77106;BME280;66057;54.718;18.426;2023-05-07T06:02:34;102585.16;;;9.10;75.99
77106;BME280;66057;54.718;18.426;2023-05-07T06:04:59;102597.69;;;9.29;75.23
77106;BME280;66057;54.718;18.426;2023-05-07T06:07:25;102598.72;;;9.42;74.61
77106;BME280;66057;54.718;18.426;2023-05-07T06:09:51;102597.06;;;9.43;74.04
77106;BME280;66057;54.718;18.426;2023-05-07T06:12:16;102600.59;;;9.33;73.80
77106;BME280;66057;54.718;18.426;2023-05-07T06:14:43;102604.75;;;9.43;74.39
77106;BME280;66057;54.718;18.426;2023-05-07T06:17:09;102603.56;;;9.49;75.08
77106;BME280;66057;54.718;18.426;2023-05-07T06:19:34;102591.16;;;9.44;73.85
77106;BME280;66057;54.718;18.426;2023-05-07T06:22:00;102594.06;;;9.48;73.46
77106;BME280;66057;54.718;18.426;2023-05-07T06:24:27;102600.47;;;9.32;74.01
77106;BME280;66057;54.718;18.426;2023-05-07T06:26:52;102613.13;;;9.52;73.89
77106;BME280;66057;54.718;18.426;2023-05-07T06:29:18;102610.91;;;9.56;73.21
77106;BME280;66057;54.718;18.426;2023-05-07T06:31:44;102620.31;;;9.68;72.90
77106;BME280;66057;54.718;18.426;2023-05-07T06:34:09;102612.59;;;9.68;73.51
77106;BME280;66057;54.718;18.426;2023-05-07T06:36:35;102612.47;;;9.66;73.54
77106;BME280;66057;54.718;18.426;2023-05-07T06:39:01;102623.75;;;9.80;72.88
77106;BME280;66057;54.718;18.426;2023-05-07T06:41:27;102622.88;;;9.79;72.90
77106;BME280;66057;54.718;18.426;2023-05-07T06:43:52;102617.84;;;9.81;72.63
77106;BME280;66057;54.718;18.426;2023-05-07T06:46:18;102619.53;;;9.80;72.45
77106;BME280;66057;54.718;18.426;2023-05-07T06:48:43;102621.41;;;9.71;72.74
77106;BME280;66057;54.718;18.426;2023-05-07T06:51:09;102616.97;;;9.69;73.10
77106;BME280;66057;54.718;18.426;2023-05-07T06:53:35;102623.09;;;9.94;72.10
77106;BME280;66057;54.718;18.426;2023-05-07T06:56:01;102621.09;;;9.90;72.11
77106;BME280;66057;54.718;18.426;2023-05-07T06:58:26;102628.03;;;9.91;71.51
77106;BME280;66057;54.718;18.426;2023-05-07T07:00:52;102628.56;;;9.98;72.09
77106;BME280;66057;54.718;18.426;2023-05-07T07:03:17;102628.91;;;10.03;73.74
77106;BME280;66057;54.718;18.426;2023-05-07T07:05:43;102629.72;;;10.02;72.70
77106;BME280;66057;54.718;18.426;2023-05-07T07:08:10;102634.72;;;10.12;71.57
77106;BME280;66057;54.718;18.426;2023-05-07T07:10:36;102637.75;;;10.18;70.71
77106;BME280;66057;54.718;18.426;2023-05-07T07:13:01;102638.78;;;10.20;71.10
77106;BME280;66057;54.718;18.426;2023-05-07T07:15:27;102633.84;;;10.23;70.72
77106;BME280;66057;54.718;18.426;2023-05-07T07:17:52;102641.44;;;10.33;70.36
77106;BME280;66057;54.718;18.426;2023-05-07T07:20:18;102642.00;;;10.29;70.60
77106;BME280;66057;54.718;18.426;2023-05-07T07:22:44;102634.97;;;10.38;70.94
77106;BME280;66057;54.718;18.426;2023-05-07T07:25:10;102647.28;;;10.31;69.54
77106;BME280;66057;54.718;18.426;2023-05-07T07:27:36;102642.59;;;10.25;70.73
77106;BME280;66057;54.718;18.426;2023-05-07T07:30:02;102647.97;;;10.17;70.83
77106;BME280;66057;54.718;18.426;2023-05-07T07:32:28;102644.78;;;10.32;70.61
77106;BME280;66057;54.718;18.426;2023-05-07T07:34:54;102644.09;;;10.46;70.84
77106;BME280;66057;54.718;18.426;2023-05-07T07:37:19;102644.09;;;10.46;70.49
77106;BME280;66057;54.718;18.426;2023-05-07T07:39:45;102647.13;;;10.53;70.82
77106;BME280;66057;54.718;18.426;2023-05-07T07:42:11;102643.44;;;10.49;70.05
77106;BME280;66057;54.718;18.426;2023-05-07T07:44:37;102645.56;;;10.55;70.66
77106;BME280;66057;54.718;18.426;2023-05-07T07:47:05;102646.53;;;10.57;70.59
77106;BME280;66057;54.718;18.426;2023-05-07T07:49:31;102646.97;;;10.63;70.04
77106;BME280;66057;54.718;18.426;2023-05-07T07:51:57;102648.78;;;10.64;69.71
77106;BME280;66057;54.718;18.426;2023-05-07T07:54:24;102658.63;;;10.69;69.11
77106;BME280;66057;54.718;18.426;2023-05-07T07:56:50;102655.34;;;10.60;68.18
77106;BME280;66057;54.718;18.426;2023-05-07T07:59:16;102661.28;;;10.71;69.13
77106;BME280;66057;54.718;18.426;2023-05-07T08:01:44;102654.13;;;10.78;69.26
77106;BME280;66057;54.718;18.426;2023-05-07T08:04:10;102661.34;;;10.84;69.08
77106;BME280;66057;54.718;18.426;2023-05-07T08:06:36;102668.28;;;10.85;68.60
77106;BME280;66057;54.718;18.426;2023-05-07T08:09:02;102661.69;;;10.88;68.58
77106;BME280;66057;54.718;18.426;2023-05-07T08:11:28;102667.69;;;10.89;67.81
77106;BME280;66057;54.718;18.426;2023-05-07T08:13:54;102661.31;;;10.96;69.20
77106;BME280;66057;54.718;18.426;2023-05-07T08:16:20;102662.22;;;10.96;69.08
77106;BME280;66057;54.718;18.426;2023-05-07T08:18:46;102662.72;;;11.04;71.04
77106;BME280;66057;54.718;18.426;2023-05-07T08:21:11;102672.34;;;11.06;71.63
77106;BME280;66057;54.718;18.426;2023-05-07T08:23:37;102672.13;;;11.03;72.11
77106;BME280;66057;54.718;18.426;2023-05-07T08:26:03;102665.41;;;11.05;71.12
77106;BME280;66057;54.718;18.426;2023-05-07T08:28:29;102665.63;;;11.08;71.38
77106;BME280;66057;54.718;18.426;2023-05-07T08:30:55;102672.56;;;11.09;71.41
77106;BME280;66057;54.718;18.426;2023-05-07T08:33:22;102672.13;;;11.03;71.32
77106;BME280;66057;54.718;18.426;2023-05-07T08:35:47;102673.28;;;10.95;70.67
77106;BME280;66057;54.718;18.426;2023-05-07T08:38:13;102678.75;;;11.00;71.67
77106;BME280;66057;54.718;18.426;2023-05-07T08:40:39;102675.25;;;11.11;71.60
77106;BME280;66057;54.718;18.426;2023-05-07T08:43:06;102672.41;;;11.19;72.31
77106;BME280;66057;54.718;18.426;2023-05-07T08:45:35;102669.53;;;11.15;71.75
77106;BME280;66057;54.718;18.426;2023-05-07T08:48:03;102661.63;;;11.00;70.11
77106;BME280;66057;54.718;18.426;2023-05-07T08:50:30;102680.47;;;10.87;72.49
77106;BME280;66057;54.718;18.426;2023-05-07T08:52:57;102685.00;;;11.03;72.29
77106;BME280;66057;54.718;18.426;2023-05-07T08:55:22;102683.69;;;10.97;71.94
77106;BME280;66057;54.718;18.426;2023-05-07T08:57:49;102682.00;;;10.97;71.06
77106;BME280;66057;54.718;18.426;2023-05-07T09:00:15;102684.91;;;11.02;71.06
77106;BME280;66057;54.718;18.426;2023-05-07T09:02:41;102689.34;;;11.04;72.61
77106;BME280;66057;54.718;18.426;2023-05-07T09:05:07;102683.44;;;11.05;71.97
77106;BME280;66057;54.718;18.426;2023-05-07T09:07:33;102685.66;;;11.12;72.11
77106;BME280;66057;54.718;18.426;2023-05-07T09:10:02;102692.56;;;11.13;72.39
77106;BME280;66057;54.718;18.426;2023-05-07T09:12:28;102685.75;;;11.14;71.88
77106;BME280;66057;54.718;18.426;2023-05-07T09:14:54;102682.28;;;11.13;72.27
77106;BME280;66057;54.718;18.426;2023-05-07T09:17:19;102686.44;;;11.11;73.30
77106;BME280;66057;54.718;18.426;2023-05-07T09:19:45;102688.16;;;11.24;71.99
77106;BME280;66057;54.718;18.426;2023-05-07T09:22:11;102687.84;;;11.19;72.71
77106;BME280;66057;54.718;18.426;2023-05-07T09:24:37;102695.72;;;11.09;71.85
77106;BME280;66057;54.718;18.426;2023-05-07T09:27:04;102679.22;;;11.19;71.24
77106;BME280;66057;54.718;18.426;2023-05-07T09:29:30;102685.00;;;11.28;71.05
77106;BME280;66057;54.718;18.426;2023-05-07T09:32:02;102681.00;;;11.31;71.46
77106;BME280;66057;54.718;18.426;2023-05-07T09:34:29;102683.34;;;11.28;72.68
77106;BME280;66057;54.718;18.426;2023-05-07T09:36:56;102690.09;;;11.15;72.95
77106;BME280;66057;54.718;18.426;2023-05-07T09:39:23;102688.88;;;11.21;73.84
77106;BME280;66057;54.718;18.426;2023-05-07T09:41:49;102689.34;;;11.04;74.44
77106;BME280;66057;54.718;18.426;2023-05-07T09:44:16;102692.16;;;11.07;73.42
77106;BME280;66057;54.718;18.426;2023-05-07T09:46:43;102684.53;;;11.09;73.64
77106;BME280;66057;54.718;18.426;2023-05-07T09:49:17;102688.00;;;11.09;73.54
77106;BME280;66057;54.718;18.426;2023-05-07T09:51:51;102690.28;;;11.29;73.92
77106;BME280;66057;54.718;18.426;2023-05-07T09:54:18;102692.41;;;11.23;74.15
77106;BME280;66057;54.718;18.426;2023-05-07T09:56:45;102702.63;;;11.22;74.26
77106;BME280;66057;54.718;18.426;2023-05-07T09:59:13;102693.63;;;11.28;73.76
77106;BME280;66057;54.718;18.426;2023-05-07T10:01:41;102696.19;;;11.28;73.10
77106;BME280;66057;54.718;18.426;2023-05-07T10:04:07;102698.47;;;11.24;74.02
77106;BME280;66057;54.718;18.426;2023-05-07T10:06:37;102692.66;;;11.26;74.89
77106;BME280;66057;54.718;18.426;2023-05-07T10:09:03;102694.34;;;11.26;74.50
77106;BME280;66057;54.718;18.426;2023-05-07T10:11:29;102695.31;;;11.28;73.35
77106;BME280;66057;54.718;18.426;2023-05-07T10:13:55;102700.78;;;11.32;73.89
77106;BME280;66057;54.718;18.426;2023-05-07T10:16:22;102704.66;;;11.39;74.04
77106;BME280;66057;54.718;18.426;2023-05-07T10:18:49;102705.91;;;11.32;73.22
77106;BME280;66057;54.718;18.426;2023-05-07T10:21:20;102706.56;;;11.42;72.85
77106;BME280;66057;54.718;18.426;2023-05-07T10:23:51;102707.59;;;11.57;72.95
77106;BME280;66057;54.718;18.426;2023-05-07T10:26:20;102706.03;;;11.59;71.48
77106;BME280;66057;54.718;18.426;2023-05-07T10:28:49;102715.72;;;11.50;73.29
77106;BME280;66057;54.718;18.426;2023-05-07T10:32:19;102718.72;;;11.56;73.18
77106;BME280;66057;54.718;18.426;2023-05-07T10:34:14;102712.16;;;11.61;72.31
77106;BME280;66057;54.718;18.426;2023-05-07T10:36:42;102708.72;;;11.60;71.89
77106;BME280;66057;54.718;18.426;2023-05-07T10:39:09;102710.41;;;11.60;71.66
77106;BME280;66057;54.718;18.426;2023-05-07T10:41:35;102702.09;;;11.64;72.54
77106;BME280;66057;54.718;18.426;2023-05-07T10:44:00;102715.16;;;11.67;70.97
77106;BME280;66057;54.718;18.426;2023-05-07T10:46:27;102709.50;;;11.59;72.17
77106;BME280;66057;54.718;18.426;2023-05-07T10:51:33;102703.28;;;11.69;71.13
77106;BME280;66057;54.718;18.426;2023-05-07T10:56:41;102702.88;;;11.63;70.59
77106;BME280;66057;54.718;18.426;2023-05-07T11:01:54;102708.13;;;11.64;70.71
77106;BME280;66057;54.718;18.426;2023-05-07T11:04:20;102692.03;;;11.80;69.56
77106;BME280;66057;54.718;18.426;2023-05-07T11:15:09;102714.19;;;12.29;71.01
77106;BME280;66057;54.718;18.426;2023-05-07T11:17:55;102706.47;;;12.29;71.31
77106;BME280;66057;54.718;18.426;2023-05-07T11:20:47;102711.63;;;12.42;69.81
77106;BME280;66057;54.718;18.426;2023-05-07T11:26:09;102714.81;;;12.25;67.80
77106;BME280;66057;54.718;18.426;2023-05-07T11:28:54;102719.66;;;12.20;67.49
77106;BME280;66057;54.718;18.426;2023-05-07T11:31:24;102713.31;;;12.29;68.25
77106;BME280;66057;54.718;18.426;2023-05-07T11:33:53;102702.41;;;12.33;68.19
77106;BME280;66057;54.718;18.426;2023-05-07T11:36:21;102713.13;;;12.26;69.00
77106;BME280;66057;54.718;18.426;2023-05-07T11:38:48;102716.69;;;12.54;69.11
77106;BME280;66057;54.718;18.426;2023-05-07T11:41:17;102718.06;;;12.49;68.88
77106;BME280;66057;54.718;18.426;2023-05-07T11:43:56;102715.06;;;12.82;66.67
77106;BME280;66057;54.718;18.426;2023-05-07T11:46:22;102711.91;;;13.14;65.57
77106;BME280;66057;54.718;18.426;2023-05-07T11:48:48;102711.56;;;13.36;66.65
77106;BME280;66057;54.718;18.426;2023-05-07T11:51:19;102709.56;;;13.60;65.41
77106;BME280;66057;54.718;18.426;2023-05-07T11:53:45;102707.13;;;14.51;63.95
77106;BME280;66057;54.718;18.426;2023-05-07T11:56:14;102704.13;;;14.74;61.98
77106;BME280;66057;54.718;18.426;2023-05-07T11:58:40;102698.13;;;15.06;62.54
77106;BME280;66057;54.718;18.426;2023-05-07T12:01:11;102698.91;;;15.37;64.76
77106;BME280;66057;54.718;18.426;2023-05-07T12:03:37;102700.69;;;15.38;65.47
77106;BME280;66057;54.718;18.426;2023-05-07T12:06:06;102697.72;;;15.97;62.57
77106;BME280;66057;54.718;18.426;2023-05-07T12:08:32;102702.72;;;15.76;63.42
77106;BME280;66057;54.718;18.426;2023-05-07T12:10:58;102698.41;;;15.77;62.95
77106;BME280;66057;54.718;18.426;2023-05-07T12:13:25;102700.72;;;15.88;62.82
77106;BME280;66057;54.718;18.426;2023-05-07T12:15:52;102709.06;;;15.83;63.13
77106;BME280;66057;54.718;18.426;2023-05-07T12:18:18;102697.09;;;15.85;64.10
77106;BME280;66057;54.718;18.426;2023-05-07T12:20:56;102706.84;;;16.24;61.88
77106;BME280;66057;54.718;18.426;2023-05-07T12:23:24;102700.69;;;16.75;59.26
77106;BME280;66057;54.718;18.426;2023-05-07T12:25:50;102698.22;;;17.34;58.26
77106;BME280;66057;54.718;18.426;2023-05-07T12:28:16;102704.63;;;16.32;62.73
77106;BME280;66057;54.718;18.426;2023-05-07T12:30:43;102705.84;;;16.93;60.29
77106;BME280;66057;54.718;18.426;2023-05-07T12:33:10;102701.50;;;17.11;58.54
77106;BME280;66057;54.718;18.426;2023-05-07T12:35:39;102697.03;;;17.09;59.47
77106;BME280;66057;54.718;18.426;2023-05-07T12:38:09;102701.69;;;17.73;57.26
77106;BME280;66057;54.718;18.426;2023-05-07T12:40:38;102707.84;;;17.96;55.03
77106;BME280;66057;54.718;18.426;2023-05-07T12:43:04;102698.44;;;18.00;55.81
77106;BME280;66057;54.718;18.426;2023-05-07T12:45:30;102699.88;;;18.12;53.77
77106;BME280;66057;54.718;18.426;2023-05-07T12:47:56;102705.34;;;17.98;53.86
77106;BME280;66057;54.718;18.426;2023-05-07T12:50:22;102703.56;;;18.17;53.25
77106;BME280;66057;54.718;18.426;2023-05-07T12:52:48;102708.75;;;18.17;53.88
77106;BME280;66057;54.718;18.426;2023-05-07T12:55:15;102700.88;;;18.37;51.16
77106;BME280;66057;54.718;18.426;2023-05-07T12:57:42;102711.63;;;18.66;50.59
77106;BME280;66057;54.718;18.426;2023-05-07T13:00:09;102715.22;;;18.06;53.42
77106;BME280;66057;54.718;18.426;2023-05-07T13:02:39;102711.03;;;18.10;54.60